Time;durP1;ratioP1;P1;durP2;ratioP2;P2;SDS_P1;SDS_P2;PMS_P1;PMS_P2;Temp;Humidity;BMP_temperature;BMP_pressure;BME280_temperature;BME280_humidity;BME280_pressure;Samples;Min_cycle;Max_cycle;Signal;HPM_P1;HPM_P2
2021/09/18 00:00:59;;;;;;;5.10;4.60;;;11.60;99.90;;;;;;4996264;28;20175;-68
2021/09/18 00:03:24;;;;;;;4.32;3.92;;;11.60;99.90;;;;;;4972074;28;20172;-68
2021/09/18 00:05:50;;;;;;;5.37;4.87;;;11.60;99.90;;;;;;4996192;28;20167;-69
2021/09/18 00:08:16;;;;;;;4.20;3.80;;;11.60;99.90;;;;;;4995975;28;20171;-69
2021/09/18 00:10:42;;;;;;;5.30;4.67;;;11.60;99.90;;;;;;4996270;28;20534;-66
2021/09/18 00:13:08;;;;;;;6.13;5.03;;;11.60;99.90;;;;;;4996019;28;20250;-68
2021/09/18 00:15:34;;;;;;;7.28;5.78;;;11.60;99.90;;;;;;4996178;28;20179;-68
2021/09/18 00:18:00;;;;;;;6.87;4.97;;;11.60;99.90;;;;;;4980761;28;20180;-67
2021/09/18 00:20:25;;;;;;;5.57;4.97;;;11.60;99.90;;;;;;4976749;28;20605;-69
2021/09/18 00:22:51;;;;;;;6.00;4.83;;;11.60;99.90;;;;;;4976829;28;20430;-68
2021/09/18 00:25:17;;;;;;;6.03;5.40;;;11.60;99.90;;;;;;4976633;28;20199;-68
2021/09/18 00:27:42;;;;;;;6.57;5.97;;;11.60;99.90;;;;;;4976058;28;20267;-67
2021/09/18 00:30:11;;;;;;;5.63;4.63;;;11.60;99.90;;;;;;4981648;28;20289;-68
2021/09/18 00:32:37;;;;;;;6.47;5.57;;;11.50;99.90;;;;;;4995766;28;20210;-67
2021/09/18 00:35:05;;;;;;;5.70;5.07;;;11.50;99.90;;;;;;4996288;28;20182;-69
2021/09/18 00:37:31;;;;;;;4.57;4.15;;;11.50;99.90;;;;;;4977721;28;20203;-69
2021/09/18 00:39:57;;;;;;;5.13;4.73;;;11.50;99.90;;;;;;4995639;28;20657;-68
2021/09/18 00:42:22;;;;;;;5.40;4.87;;;11.40;99.90;;;;;;4991239;28;20183;-66
2021/09/18 00:44:50;;;;;;;6.97;5.30;;;11.30;99.90;;;;;;4976985;28;20535;-68
2021/09/18 00:47:15;;;;;;;5.90;5.28;;;11.30;99.90;;;;;;4975669;28;20168;-68
2021/09/18 00:49:41;;;;;;;5.40;4.90;;;11.30;99.90;;;;;;4975324;28;20303;-68
2021/09/18 00:52:07;;;;;;;6.20;5.60;;;11.20;99.90;;;;;;4975606;28;20599;-68
2021/09/18 00:54:32;;;;;;;4.63;4.20;;;11.20;99.90;;;;;;4975986;28;20179;-66
2021/09/18 00:56:59;;;;;;;6.07;5.50;;;11.20;99.90;;;;;;4975467;28;20486;-67
2021/09/18 00:59:25;;;;;;;6.95;4.07;;;11.20;99.90;;;;;;4985297;28;20334;-68
2021/09/18 01:01:51;;;;;;;4.77;4.37;;;11.20;99.90;;;;;;4994678;28;20579;-69
2021/09/18 01:04:17;;;;;;;7.10;5.90;;;11.10;99.90;;;;;;4978753;28;20478;-67
2021/09/18 01:06:42;;;;;;;4.77;4.27;;;11.10;99.90;;;;;;4975169;28;20647;-67
2021/09/18 01:09:08;;;;;;;5.00;4.60;;;11.10;99.90;;;;;;4975679;28;20211;-67
2021/09/18 01:11:34;;;;;;;5.47;4.70;;;11.10;99.90;;;;;;4958330;28;20180;-68
2021/09/18 01:13:59;;;;;;;10.00;9.00;;;11.10;99.90;;;;;;4976468;28;20419;-68
2021/09/18 01:16:25;;;;;;;6.67;6.00;;;11.00;99.90;;;;;;4975713;28;20172;-69
2021/09/18 01:18:51;;;;;;;6.15;5.65;;;11.00;99.90;;;;;;4974800;28;20204;-67
2021/09/18 01:21:19;;;;;;;5.10;4.60;;;11.00;99.90;;;;;;4975376;28;20313;-68
2021/09/18 01:23:45;;;;;;;5.47;4.97;;;11.00;99.90;;;;;;4983655;28;20504;-68
2021/09/18 01:26:11;;;;;;;6.33;4.57;;;11.00;99.90;;;;;;4975612;28;20187;-68
2021/09/18 01:28:41;;;;;;;5.70;4.20;;;11.00;99.90;;;;;;4976272;28;20964;-68
2021/09/18 01:31:08;;;;;;;5.90;4.88;;;10.90;99.90;;;;;;4994613;28;20411;-68
2021/09/18 01:33:33;;;;;;;5.85;5.35;;;11.00;99.90;;;;;;4994431;28;20175;-68
2021/09/18 01:35:59;;;;;;;5.37;4.87;;;10.90;99.90;;;;;;4994229;28;20175;-67
2021/09/18 01:38:25;;;;;;;5.53;4.83;;;10.90;99.90;;;;;;4992571;28;20208;-68
2021/09/18 01:40:50;;;;;;;5.37;4.70;;;10.90;99.90;;;;;;4981248;28;20172;-67
2021/09/18 01:43:16;;;;;;;5.70;5.20;;;10.80;99.90;;;;;;4994360;28;20241;-68
2021/09/18 01:45:42;;;;;;;5.07;4.63;;;10.80;99.90;;;;;;4994129;28;20164;-66
2021/09/18 01:48:14;;;;;;;5.77;5.30;;;10.80;99.90;;;;;;4993874;28;20185;-68
2021/09/18 01:50:48;;;;;;;7.72;5.47;;;10.80;99.90;;;;;;4938372;29;20448;-67
2021/09/18 01:53:17;;;;;;;5.85;5.25;;;10.80;99.90;;;;;;4955630;29;20176;-68
2021/09/18 01:55:44;;;;;;;6.35;5.72;;;10.80;99.90;;;;;;4955695;29;20169;-67
2021/09/18 01:58:10;;;;;;;6.32;5.72;;;10.80;99.90;;;;;;4954784;28;20164;-66
2021/09/18 02:00:38;;;;;;;6.68;6.07;;;10.80;99.90;;;;;;4986148;28;20587;-68
2021/09/18 02:03:04;;;;;;;5.70;5.10;;;10.80;99.90;;;;;;4992339;28;20543;-68
2021/09/18 02:05:29;;;;;;;7.30;5.40;;;10.90;99.90;;;;;;4974538;28;20256;-68
2021/09/18 02:07:55;;;;;;;4.80;4.40;;;10.90;99.90;;;;;;4989356;28;20182;-69
2021/09/18 02:10:24;;;;;;;5.28;4.88;;;10.90;99.90;;;;;;4993826;28;20230;-69
2021/09/18 02:12:50;;;;;;;4.90;4.40;;;10.90;99.90;;;;;;4994143;28;20203;-68
2021/09/18 02:15:17;;;;;;;5.10;4.70;;;10.90;99.90;;;;;;4993955;28;20171;-69
2021/09/18 02:17:43;;;;;;;4.95;4.50;;;10.90;99.90;;;;;;4993341;28;20183;-69
2021/09/18 02:20:12;;;;;;;5.00;4.60;;;10.80;99.90;;;;;;4962487;28;20215;-69
2021/09/18 02:22:38;;;;;;;5.30;4.40;;;10.80;99.90;;;;;;4974427;28;20862;-68
2021/09/18 02:25:05;;;;;;;4.35;3.95;;;10.90;99.90;;;;;;4974427;28;20179;-68
2021/09/18 02:27:31;;;;;;;5.60;5.10;;;10.80;99.90;;;;;;4973949;28;20187;-67
2021/09/18 02:29:56;;;;;;;4.00;3.60;;;10.80;99.90;;;;;;4987940;28;20203;-68
2021/09/18 02:32:22;;;;;;;5.63;4.60;;;10.80;99.90;;;;;;4993493;28;20183;-67
2021/09/18 02:34:48;;;;;;;4.67;4.27;;;10.80;99.90;;;;;;4976096;28;20510;-68
2021/09/18 02:37:13;;;;;;;5.97;5.27;;;10.80;99.90;;;;;;4992892;28;20183;-68
2021/09/18 02:39:40;;;;;;;4.77;3.93;;;10.80;99.90;;;;;;4992651;28;20217;-67
2021/09/18 02:42:05;;;;;;;6.05;4.72;;;10.70;99.90;;;;;;4974078;28;20399;-68
2021/09/18 02:44:31;;;;;;;4.87;4.10;;;10.70;99.90;;;;;;4974009;28;20680;-65
2021/09/18 02:46:57;;;;;;;4.10;3.70;;;10.70;99.90;;;;;;4979235;28;20936;-68
2021/09/18 02:49:23;;;;;;;4.50;4.10;;;10.60;99.90;;;;;;4993205;28;20203;-68
2021/09/18 02:51:48;;;;;;;7.00;4.77;;;10.60;99.90;;;;;;4986663;28;20207;-68
2021/09/18 02:54:14;;;;;;;5.43;4.47;;;10.60;99.90;;;;;;4973719;28;20255;-68
2021/09/18 02:56:40;;;;;;;5.07;4.30;;;10.60;99.90;;;;;;4973591;28;20183;-69
2021/09/18 02:59:05;;;;;;;4.67;4.27;;;10.60;99.90;;;;;;4973750;28;20247;-68
2021/09/18 03:01:31;;;;;;;4.90;4.40;;;10.60;99.90;;;;;;4985636;28;20665;-68
2021/09/18 03:03:56;;;;;;;5.37;4.73;;;10.60;99.90;;;;;;4993376;28;20168;-68
2021/09/18 03:06:22;;;;;;;4.17;3.77;;;10.50;99.90;;;;;;4992638;28;20194;-68
2021/09/18 03:08:48;;;;;;;5.57;5.10;;;10.50;99.90;;;;;;4992626;28;20686;-68
2021/09/18 03:11:13;;;;;;;5.47;4.93;;;10.50;99.90;;;;;;4993083;28;20168;-67
2021/09/18 03:13:39;;;;;;;5.73;5.13;;;10.50;99.90;;;;;;4977099;28;20190;-68
2021/09/18 03:16:06;;;;;;;6.37;4.53;;;10.50;99.90;;;;;;4997244;28;20291;-68
2021/09/18 03:18:31;;;;;;;5.40;4.25;;;10.40;99.90;;;;;;4996702;28;20199;-68
2021/09/18 03:20:57;;;;;;;5.50;5.00;;;10.40;99.90;;;;;;4990897;28;20168;-67
2021/09/18 03:23:22;;;;;;;3.90;3.33;;;10.40;99.90;;;;;;4977649;28;20279;-66
2021/09/18 03:25:48;;;;;;;7.07;5.03;;;10.30;99.90;;;;;;4960185;28;20179;-67
2021/09/18 03:28:14;;;;;;;5.47;4.67;;;10.30;99.90;;;;;;4977122;28;20615;-67
2021/09/18 03:30:39;;;;;;;5.70;5.20;;;10.30;99.90;;;;;;4977567;28;20180;-67
2021/09/18 03:33:05;;;;;;;5.07;4.57;;;10.30;99.90;;;;;;4977584;28;20172;-68
2021/09/18 03:35:31;;;;;;;4.43;4.03;;;10.30;99.90;;;;;;4978115;28;20180;-67
2021/09/18 03:37:56;;;;;;;4.93;4.47;;;10.30;99.90;;;;;;4978723;28;20191;-68
2021/09/18 03:40:22;;;;;;;5.67;4.60;;;10.30;99.90;;;;;;4996222;28;20577;-67
2021/09/18 03:42:48;;;;;;;6.05;4.50;;;10.20;99.90;;;;;;4996342;28;20171;-66
2021/09/18 03:45:14;;;;;;;5.00;4.40;;;10.20;99.90;;;;;;4996247;28;20246;-67
2021/09/18 03:47:40;;;;;;;4.20;3.90;;;10.20;99.90;;;;;;4995869;28;20650;-67
2021/09/18 03:50:08;;;;;;;5.53;4.77;;;10.20;99.90;;;;;;4994405;28;20245;-67
2021/09/18 03:52:35;;;;;;;5.53;3.97;;;10.20;99.90;;;;;;4996222;28;20172;-67
2021/09/18 03:55:01;;;;;;;9.63;4.68;;;10.20;99.90;;;;;;4996469;28;20176;-67
2021/09/18 03:57:26;;;;;;;6.50;5.37;;;10.20;99.90;;;;;;4982331;28;20180;-67
2021/09/18 03:59:52;;;;;;;6.23;5.10;;;10.20;99.90;;;;;;4958987;28;20219;-66
2021/09/18 04:02:18;;;;;;;5.53;5.10;;;10.20;99.90;;;;;;4976651;28;20623;-67
2021/09/18 04:04:43;;;;;;;5.63;5.03;;;10.20;99.90;;;;;;4976433;28;20262;-67
2021/09/18 04:07:09;;;;;;;6.70;4.93;;;10.10;99.90;;;;;;4976249;28;20179;-68
2021/09/18 04:09:37;;;;;;;4.73;4.33;;;10.10;99.90;;;;;;4976393;28;20670;-66
2021/09/18 04:12:03;;;;;;;6.00;5.43;;;10.10;99.90;;;;;;4976550;28;20172;-66
2021/09/18 04:14:29;;;;;;;4.40;4.00;;;10.10;99.90;;;;;;4976346;28;20657;-68
2021/09/18 04:16:54;;;;;;;3.27;3.00;;;10.00;99.90;;;;;;4980398;28;20431;-67
2021/09/18 04:19:20;;;;;;;5.00;4.60;;;10.00;99.90;;;;;;4975974;28;20208;-67
2021/09/18 04:21:46;;;;;;;5.13;4.73;;;10.00;99.90;;;;;;4976499;28;20267;-65
2021/09/18 04:24:11;;;;;;;5.07;4.57;;;10.00;99.90;;;;;;4976516;28;20198;-66
2021/09/18 04:26:37;;;;;;;5.63;5.03;;;10.00;99.90;;;;;;4975020;28;20169;-67
2021/09/18 04:29:03;;;;;;;4.77;4.30;;;9.90;99.90;;;;;;4976028;28;20279;-67
2021/09/18 04:31:28;;;;;;;6.00;4.90;;;9.90;99.90;;;;;;4976088;28;20610;-66
2021/09/18 04:33:54;;;;;;;5.33;4.83;;;9.90;99.90;;;;;;4993422;28;20186;-66
2021/09/18 04:36:20;;;;;;;4.30;3.90;;;9.80;99.90;;;;;;4982856;28;20203;-66
2021/09/18 04:38:46;;;;;;;5.65;4.47;;;9.80;99.90;;;;;;4958024;28;20303;-66
2021/09/18 04:41:12;;;;;;;6.00;4.37;;;9.80;99.90;;;;;;4975871;28;20272;-67
2021/09/18 04:43:38;;;;;;;4.67;4.20;;;9.80;99.90;;;;;;4975854;28;20192;-65
2021/09/18 04:46:04;;;;;;;5.27;4.93;;;9.80;99.90;;;;;;4975816;28;20176;-66
2021/09/18 04:48:30;;;;;;;5.70;5.10;;;9.80;99.90;;;;;;4992289;28;20858;-67
2021/09/18 04:50:56;;;;;;;6.23;5.30;;;9.80;99.90;;;;;;4995129;28;20183;-67
2021/09/18 04:53:22;;;;;;;4.40;4.03;;;9.70;99.90;;;;;;4995197;28;20206;-66
2021/09/18 04:55:47;;;;;;;7.60;4.30;;;9.70;99.90;;;;;;4990281;28;20176;-66
2021/09/18 04:58:13;;;;;;;3.97;3.33;;;9.70;99.90;;;;;;4975199;28;20416;-67
2021/09/18 05:00:39;;;;;;;8.93;4.37;;;9.70;99.90;;;;;;4975557;28;20173;-64
2021/09/18 05:03:05;;;;;;;8.52;4.55;;;9.70;99.90;;;;;;4976497;28;20176;-67
2021/09/18 05:05:31;;;;;;;7.70;3.70;;;9.60;99.90;;;;;;4975917;28;20180;-65
2021/09/18 05:07:56;;;;;;;13.00;6.20;;;9.60;99.90;;;;;;4975264;28;20243;-67
2021/09/18 05:10:22;;;;;;;22.40;5.70;;;9.60;99.90;;;;;;4992934;28;20270;-65
2021/09/18 05:12:48;;;;;;;4.53;4.13;;;9.50;99.90;;;;;;4995000;28;20182;-64
2021/09/18 05:15:14;;;;;;;5.93;4.30;;;9.60;99.90;;;;;;4995166;28;20183;-64
2021/09/18 05:17:40;;;;;;;3.83;3.47;;;9.60;99.90;;;;;;4960410;28;20203;-66
2021/09/18 05:20:07;;;;;;;4.50;3.97;;;9.60;99.90;;;;;;4975447;28;20686;-68
2021/09/18 05:22:33;;;;;;;4.00;3.50;;;9.60;99.90;;;;;;4975902;28;20545;-66
2021/09/18 05:24:59;;;;;;;4.70;4.30;;;9.60;99.90;;;;;;4992127;28;20233;-65
2021/09/18 05:27:25;;;;;;;7.53;4.65;;;9.60;99.90;;;;;;4993784;28;20423;-65
2021/09/18 05:29:51;;;;;;;5.90;5.33;;;9.60;99.90;;;;;;4975680;28;20382;-64
2021/09/18 05:32:17;;;;;;;5.33;4.80;;;9.70;99.90;;;;;;4982570;28;20182;-64
2021/09/18 05:34:42;;;;;;;4.83;4.00;;;9.70;99.90;;;;;;4994722;28;20190;-67
2021/09/18 05:37:08;;;;;;;6.33;5.40;;;9.70;99.90;;;;;;4985042;28;20518;-65
2021/09/18 05:39:34;;;;;;;5.53;4.97;;;9.80;99.90;;;;;;4975149;28;20197;-68
2021/09/18 05:42:00;;;;;;;7.07;4.87;;;9.90;99.90;;;;;;4957283;28;20498;-65
2021/09/18 05:44:25;;;;;;;7.20;5.57;;;9.90;99.90;;;;;;4957423;28;20419;-66
2021/09/18 05:46:51;;;;;;;6.70;4.50;;;10.00;99.90;;;;;;4974429;28;20489;-66
2021/09/18 05:49:17;;;;;;;7.80;4.93;;;10.00;99.90;;;;;;4993313;28;20203;-64
2021/09/18 05:51:43;;;;;;;10.03;4.80;;;10.10;99.90;;;;;;4994395;28;20613;-65
2021/09/18 05:54:08;;;;;;;14.43;5.40;;;10.20;99.90;;;;;;4984113;28;20416;-63
2021/09/18 05:56:34;;;;;;;12.53;6.17;;;10.30;99.90;;;;;;4972098;28;20187;-64
2021/09/18 05:59:03;;;;;;;8.40;6.30;;;10.30;99.90;;;;;;4972616;28;20705;-63
2021/09/18 06:01:29;;;;;;;13.68;6.10;;;10.40;99.90;;;;;;4972965;28;20535;-64
2021/09/18 06:03:55;;;;;;;5.83;5.33;;;10.50;99.90;;;;;;4972613;28;20200;-64
2021/09/18 06:06:20;;;;;;;6.40;5.20;;;10.60;99.90;;;;;;4967706;28;20465;-65
2021/09/18 06:08:46;;;;;;;8.17;6.57;;;10.70;99.90;;;;;;4986048;28;20195;-65
2021/09/18 06:11:12;;;;;;;9.13;6.10;;;10.90;99.90;;;;;;4981216;28;20238;-66
2021/09/18 06:13:38;;;;;;;12.67;6.33;;;11.10;99.90;;;;;;4973638;28;20527;-66
2021/09/18 06:16:04;;;;;;;8.07;6.80;;;11.20;99.90;;;;;;4973481;28;20647;-66
2021/09/18 06:18:30;;;;;;;7.90;6.30;;;11.40;99.90;;;;;;4972881;28;21068;-66
2021/09/18 06:20:56;;;;;;;11.10;8.00;;;11.40;99.90;;;;;;4973448;28;20499;-66
2021/09/18 06:23:22;;;;;;;6.30;5.40;;;11.60;99.90;;;;;;4974178;28;20956;-65
2021/09/18 06:25:47;;;;;;;7.43;5.68;;;11.60;99.90;;;;;;4974296;28;20518;-66
2021/09/18 06:28:13;;;;;;;8.33;7.53;;;11.70;99.90;;;;;;4973848;28;20261;-65
2021/09/18 06:30:41;;;;;;;7.07;5.77;;;11.80;99.90;;;;;;4973960;28;20271;-64
2021/09/18 06:33:06;;;;;;;5.90;5.30;;;11.90;99.90;;;;;;4972277;28;20180;-65
2021/09/18 06:35:32;;;;;;;8.20;7.00;;;12.00;99.90;;;;;;4974177;28;20177;-65
2021/09/18 06:37:58;;;;;;;6.77;5.93;;;12.00;99.90;;;;;;4973641;28;20256;-66
2021/09/18 06:40:25;;;;;;;8.80;6.60;;;12.00;99.90;;;;;;4973772;28;20215;-66
2021/09/18 06:42:51;;;;;;;6.47;5.63;;;12.10;99.90;;;;;;4973868;28;20180;-65
2021/09/18 06:45:17;;;;;;;6.10;5.60;;;12.20;99.90;;;;;;4986425;28;20536;-66
2021/09/18 06:47:42;;;;;;;7.50;6.87;;;12.40;99.90;;;;;;4992631;28;20676;-66
2021/09/18 06:50:08;;;;;;;8.40;6.13;;;12.60;99.90;;;;;;4993043;28;20812;-66
2021/09/18 06:52:34;;;;;;;7.10;6.40;;;12.70;99.90;;;;;;4993115;28;20623;-66
2021/09/18 06:55:00;;;;;;;6.30;5.03;;;12.70;99.90;;;;;;4961184;28;20235;-67
2021/09/18 06:57:25;;;;;;;5.57;5.07;;;12.80;99.90;;;;;;4973656;28;20195;-66
2021/09/18 06:59:51;;;;;;;6.03;4.90;;;12.80;99.90;;;;;;4973702;28;20297;-65
2021/09/18 07:02:17;;;;;;;5.93;5.10;;;12.90;99.90;;;;;;4973865;28;20178;-65
2021/09/18 07:04:42;;;;;;;9.30;5.70;;;13.10;99.90;;;;;;4973809;28;20178;-67
2021/09/18 07:07:08;;;;;;;5.97;5.57;;;13.40;99.90;;;;;;4980082;28;20674;-69
2021/09/18 07:09:34;;;;;;;6.57;5.33;;;13.60;99.90;;;;;;4993193;28;20565;-68
2021/09/18 07:12:00;;;;;;;5.17;4.60;;;13.90;99.90;;;;;;4993210;28;20600;-66
2021/09/18 07:14:26;;;;;;;4.83;4.43;;;14.20;99.90;;;;;;4993244;28;20429;-65
2021/09/18 07:16:51;;;;;;;4.80;4.40;;;14.50;99.90;;;;;;4993053;28;20725;-67
2021/09/18 07:19:17;;;;;;;4.70;4.30;;;14.50;99.90;;;;;;4993401;28;20210;-66
2021/09/18 07:21:43;;;;;;;4.83;4.23;;;14.40;99.90;;;;;;4987498;28;20194;-68
2021/09/18 07:24:09;;;;;;;4.30;3.90;;;14.30;99.90;;;;;;4973840;28;20543;-66
2021/09/18 07:26:36;;;;;;;4.43;4.03;;;14.30;99.90;;;;;;4973526;28;20630;-67
2021/09/18 07:29:02;;;;;;;5.13;4.63;;;14.30;99.90;;;;;;4973438;28;20508;-65
2021/09/18 07:31:27;;;;;;;5.50;4.37;;;14.50;99.90;;;;;;4973611;28;20489;-69
2021/09/18 07:33:53;;;;;;;3.70;3.40;;;14.90;99.90;;;;;;4973570;28;20764;-67
2021/09/18 07:36:19;;;;;;;4.67;4.27;;;15.30;99.90;;;;;;4974507;28;20183;-66
2021/09/18 07:38:45;;;;;;;3.57;3.27;;;15.90;99.90;;;;;;4972921;28;20223;-68
2021/09/18 07:41:11;;;;;;;4.20;3.77;;;16.40;99.90;;;;;;4973259;28;20402;-68
2021/09/18 07:43:37;;;;;;;3.77;3.43;;;16.90;99.90;;;;;;4973193;28;20398;-67
2021/09/18 07:46:03;;;;;;;3.83;3.53;;;17.40;99.90;;;;;;4973263;28;20710;-67
2021/09/18 07:48:29;;;;;;;3.20;3.00;;;18.10;99.90;;;;;;4972636;28;20207;-67
2021/09/18 07:50:55;;;;;;;3.70;3.40;;;18.90;99.90;;;;;;4986342;28;20677;-65
2021/09/18 07:53:21;;;;;;;4.10;3.37;;;19.60;99.90;;;;;;4990535;28;20498;-68
2021/09/18 07:55:47;;;;;;;3.07;2.87;;;20.50;99.90;;;;;;4972867;28;20947;-69
2021/09/18 07:58:14;;;;;;;3.30;3.00;;;21.40;99.90;;;;;;4972838;28;20184;-70
2021/09/18 08:00:40;;;;;;;2.87;2.67;;;22.30;99.90;;;;;;4977000;28;20168;-67
2021/09/18 08:03:06;;;;;;;3.57;3.23;;;23.40;99.70;;;;;;4996155;28;20412;-67
2021/09/18 08:05:31;;;;;;;4.60;4.20;;;24.40;97.30;;;;;;4995188;28;20254;-67
2021/09/18 08:07:57;;;;;;;3.83;3.53;;;25.00;94.70;;;;;;4994775;28;20658;-66
2021/09/18 08:10:22;;;;;;;3.73;3.43;;;25.30;93.80;;;;;;4983669;28;20212;-68
2021/09/18 08:12:48;;;;;;;3.93;3.63;;;25.90;93.60;;;;;;4976232;28;20251;-69
2021/09/18 08:15:15;;;;;;;3.80;3.60;;;26.60;91.50;;;;;;4976631;28;20255;-66
2021/09/18 08:17:42;;;;;;;5.03;4.53;;;27.10;90.70;;;;;;4975857;28;20651;-66
2021/09/18 08:20:09;;;;;;;4.10;3.77;;;27.50;90.80;;;;;;4978697;28;20470;-67
2021/09/18 08:22:34;;;;;;;4.30;4.00;;;28.30;88.30;;;;;;4976285;28;20422;-69
2021/09/18 08:25:00;;;;;;;4.33;4.00;;;29.00;85.70;;;;;;4959101;28;20762;-67
2021/09/18 08:27:26;;;;;;;4.80;4.40;;;29.10;82.60;;;;;;4976215;28;20635;-71
2021/09/18 08:29:51;;;;;;;4.17;3.87;;;29.10;82.90;;;;;;4983458;28;20242;-68
2021/09/18 08:32:17;;;;;;;4.63;4.23;;;29.60;82.30;;;;;;4995872;28;20611;-70
2021/09/18 08:34:43;;;;;;;4.00;3.70;;;30.20;79.80;;;;;;4984396;28;20255;-69
2021/09/18 08:37:08;;;;;;;4.70;4.20;;;30.80;78.00;;;;;;4975944;28;20215;-67
2021/09/18 08:39:35;;;;;;;4.33;3.77;;;31.00;75.60;;;;;;4981461;28;20196;-70
2021/09/18 08:42:05;;;;;;;4.40;4.10;;;31.20;74.80;;;;;;4976335;28;20207;-69
2021/09/18 08:44:31;;;;;;;4.60;3.93;;;31.40;73.30;;;;;;4976525;28;20498;-69
2021/09/18 08:46:59;;;;;;;4.33;4.03;;;31.60;73.60;;;;;;4977067;28;20498;-70
2021/09/18 08:49:26;;;;;;;5.43;4.97;;;31.70;71.10;;;;;;4983400;28;20451;-66
2021/09/18 08:51:52;;;;;;;4.77;4.47;;;31.70;70.40;;;;;;4995658;28;20850;-69
2021/09/18 08:54:18;;;;;;;3.90;3.60;;;31.80;69.70;;;;;;4995407;28;20441;-66
2021/09/18 08:56:43;;;;;;;4.17;3.87;;;31.50;69.60;;;;;;4981800;28;20180;-70
2021/09/18 08:59:09;;;;;;;4.40;4.10;;;31.40;70.00;;;;;;4994347;28;20361;-72
2021/09/18 09:01:35;;;;;;;4.83;4.43;;;31.30;70.40;;;;;;4994900;28;20619;-69
2021/09/18 09:04:03;;;;;;;4.50;4.20;;;31.50;70.10;;;;;;4995429;28;20191;-68
2021/09/18 09:06:42;;;;;;;4.70;4.40;;;31.60;70.00;;;;;;4995449;28;20191;-69
2021/09/18 09:09:08;;;;;;;5.27;4.87;;;31.70;68.80;;;;;;4983591;28;20531;-67
2021/09/18 09:11:34;;;;;;;3.97;3.67;;;32.00;69.40;;;;;;4985419;28;20954;-76
2021/09/18 09:14:04;;;;;;;4.27;3.97;;;32.00;67.70;;;;;;4994574;28;20434;-73
2021/09/18 09:16:35;;;;;;;3.60;3.40;;;32.30;67.00;;;;;;4992805;28;20174;-78
2021/09/18 09:19:17;;;;;;;4.10;3.80;;;32.60;64.70;;;;;;4995044;28;20458;-74
2021/09/18 09:21:48;;;;;;;4.37;4.07;;;32.50;64.10;;;;;;4994960;28;20411;-75
2021/09/18 09:24:17;;;;;;;3.93;3.67;;;32.70;62.90;;;;;;4994524;28;20410;-76
2021/09/18 09:27:05;;;;;;;3.20;3.00;;;32.80;63.10;;;;;;4955854;29;20404;-77
2021/09/18 09:29:49;;;;;;;3.67;3.37;;;32.90;60.60;;;;;;4956296;29;20428;-74
2021/09/18 09:32:38;;;;;;;4.13;3.83;;;33.20;60.10;;;;;;4956135;29;20416;-74
2021/09/18 09:35:06;;;;;;;5.57;5.17;;;33.40;60.00;;;;;;4939095;29;20425;-76
2021/09/18 09:37:32;;;;;;;3.33;3.13;;;33.70;59.80;;;;;;4955756;29;20439;-75
2021/09/18 09:40:00;;;;;;;2.97;2.77;;;33.50;58.40;;;;;;4965016;28;20468;-76
2021/09/18 09:42:45;;;;;;;11.77;10.67;;;33.40;57.80;;;;;;4977285;28;20207;-73
2021/09/18 09:45:17;;;;;;;3.73;3.43;;;33.70;58.60;;;;;;4977577;28;20407;-74
2021/09/18 09:47:44;;;;;;;4.30;3.27;;;33.80;58.50;;;;;;4994246;28;20418;-76
2021/09/18 09:50:11;;;;;;;4.03;3.73;;;33.50;58.70;;;;;;4994278;28;20514;-75
2021/09/18 09:52:40;;;;;;;3.00;2.80;;;33.00;58.60;;;;;;4991709;28;20480;-75
2021/09/18 09:55:09;;;;;;;2.30;2.20;;;32.50;58.30;;;;;;4990075;28;20476;-74
2021/09/18 09:57:35;;;;;;;2.40;2.20;;;32.50;57.70;;;;;;4993889;28;20409;-74
2021/09/18 10:00:07;;;;;;;1.83;1.73;;;32.80;57.00;;;;;;4993900;28;20493;-73
2021/09/18 10:02:35;;;;;;;2.37;2.27;;;33.00;55.60;;;;;;4994549;28;20404;-74
2021/09/18 10:05:01;;;;;;;1.80;1.70;;;33.00;54.90;;;;;;4994429;28;20887;-74
2021/09/18 10:07:26;;;;;;;2.13;2.03;;;33.20;53.80;;;;;;4993967;28;20409;-74
2021/09/18 10:09:53;;;;;;;1.70;1.60;;;33.00;53.20;;;;;;4993981;28;20222;-73
2021/09/18 10:12:22;;;;;;;2.03;1.80;;;32.90;52.50;;;;;;4993970;28;20713;-75
2021/09/18 10:14:52;;;;;;;1.60;1.50;;;33.00;52.20;;;;;;4983134;28;20462;-72
2021/09/18 10:17:19;;;;;;;2.40;2.20;;;33.10;52.10;;;;;;4973989;28;20768;-74
2021/09/18 10:25:02;;;;;;;2.10;2.00;;;33.40;53.70;;;;;;4974213;28;20608;-74
2021/09/18 10:27:27;;;;;;;2.40;2.30;;;33.10;54.60;;;;;;4974434;28;20802;-74
2021/09/18 10:29:55;;;;;;;2.37;2.23;;;33.00;55.10;;;;;;4986851;28;20469;-73
2021/09/18 10:32:24;;;;;;;2.50;2.30;;;32.80;55.60;;;;;;4993914;28;20245;-74
2021/09/18 10:35:09;;;;;;;2.30;2.20;;;32.30;54.90;;;;;;4976383;28;20999;-74
2021/09/18 10:37:38;;;;;;;2.10;2.00;;;31.90;56.00;;;;;;4993568;28;20421;-74
2021/09/18 10:40:12;;;;;;;2.00;1.90;;;31.70;56.40;;;;;;4992182;28;20462;-75
2021/09/18 10:42:42;;;;;;;2.10;2.00;;;31.50;55.60;;;;;;4994096;28;20414;-73
2021/09/18 10:45:09;;;;;;;2.50;2.30;;;31.40;56.10;;;;;;4993902;28;20399;-74
2021/09/18 10:47:48;;;;;;;2.10;2.00;;;31.20;57.40;;;;;;4993515;28;20406;-73
2021/09/18 10:50:35;;;;;;;3.00;2.80;;;31.00;57.80;;;;;;4993243;28;20457;-73
2021/09/18 10:53:08;;;;;;;3.80;3.50;;;31.00;57.80;;;;;;4993626;28;20411;-73
2021/09/18 10:55:58;;;;;;;1.97;1.87;;;31.00;58.20;;;;;;4993776;28;20809;-73
2021/09/18 10:58:25;;;;;;;2.90;2.70;;;30.80;55.80;;;;;;4976092;28;20446;-72
2021/09/18 11:00:55;;;;;;;2.73;2.53;;;30.60;57.00;;;;;;4993623;28;20396;-73
2021/09/18 11:03:39;;;;;;;2.13;2.03;;;30.20;58.30;;;;;;4993505;28;20413;-73
2021/09/18 11:06:05;;;;;;;3.27;3.00;;;29.00;60.10;;;;;;4976952;28;20427;-74
2021/09/18 11:08:35;;;;;;;2.60;2.40;;;27.80;63.00;;;;;;4973473;28;20442;-72
2021/09/18 11:11:11;;;;;;;3.07;2.87;;;27.00;64.00;;;;;;4973880;28;20463;-73
2021/09/18 11:13:38;;;;;;;2.90;2.70;;;26.40;67.00;;;;;;4974020;28;20384;-74
2021/09/18 11:16:18;;;;;;;3.17;2.87;;;25.70;69.10;;;;;;4974377;28;20409;-73
2021/09/18 11:18:49;;;;;;;3.57;3.27;;;24.90;73.40;;;;;;4973480;28;20444;-72
2021/09/18 11:21:27;;;;;;;2.90;2.70;;;24.10;76.90;;;;;;4959221;28;20440;-73
2021/09/18 11:23:57;;;;;;;3.00;2.70;;;23.70;78.90;;;;;;4990466;28;20502;-73
2021/09/18 11:26:39;;;;;;;2.87;2.67;;;23.30;81.50;;;;;;4993430;28;20385;-73
2021/09/18 11:29:14;;;;;;;3.90;3.13;;;23.00;82.00;;;;;;4992676;28;20412;-74
2021/09/18 11:32:01;;;;;;;3.10;2.80;;;22.70;83.70;;;;;;4993259;28;20403;-75
2021/09/18 11:34:46;;;;;;;4.67;3.43;;;22.60;85.30;;;;;;4994084;28;20807;-73
2021/09/18 11:37:25;;;;;;;3.97;3.67;;;22.50;84.80;;;;;;4996622;28;20372;-71
2021/09/18 11:39:55;;;;;;;2.30;2.10;;;22.30;85.40;;;;;;4979418;28;20486;-72
2021/09/18 11:42:20;;;;;;;2.63;2.43;;;22.30;86.30;;;;;;4997185;28;20375;-73
2021/09/18 11:44:48;;;;;;;2.53;1.93;;;22.30;85.40;;;;;;4997059;28;20402;-73
2021/09/18 11:47:23;;;;;;;2.87;2.67;;;22.40;87.20;;;;;;4996797;28;20166;-73
2021/09/18 11:49:49;;;;;;;2.27;2.17;;;22.40;85.00;;;;;;4995223;28;20480;-73
2021/09/18 11:52:14;;;;;;;2.33;2.13;;;22.20;85.30;;;;;;4997103;28;20411;-73
2021/09/18 11:54:40;;;;;;;2.47;2.27;;;22.20;85.30;;;;;;4997001;28;20925;-74
2021/09/18 11:57:17;;;;;;;2.63;2.43;;;22.20;86.50;;;;;;4996368;28;20168;-74
2021/09/18 11:59:45;;;;;;;2.53;2.10;;;22.30;85.30;;;;;;4996580;28;20199;-73
2021/09/18 12:02:10;;;;;;;2.50;2.30;;;22.30;86.20;;;;;;4996812;28;20898;-74
2021/09/18 12:04:39;;;;;;;2.47;1.97;;;22.40;85.30;;;;;;4984108;28;20402;-73
2021/09/18 12:07:04;;;;;;;2.37;2.27;;;22.30;85.40;;;;;;4976789;28;20541;-73
2021/09/18 12:09:30;;;;;;;2.73;2.33;;;22.30;87.60;;;;;;4977119;28;20412;-73
2021/09/18 12:11:56;;;;;;;6.13;2.80;;;22.40;87.10;;;;;;4977335;28;20259;-74
2021/09/18 12:14:36;;;;;;;2.50;2.30;;;22.40;85.10;;;;;;4977116;28;20269;-74
2021/09/18 12:17:19;;;;;;;2.37;2.20;;;22.30;85.10;;;;;;4976937;28;20176;-72
2021/09/18 12:19:46;;;;;;;2.20;2.10;;;22.30;85.70;;;;;;4990726;28;20800;-74
2021/09/18 12:22:13;;;;;;;2.23;2.07;;;22.40;85.10;;;;;;4996037;28;20391;-72
2021/09/18 12:24:41;;;;;;;2.67;2.47;;;22.40;84.80;;;;;;4994781;28;20410;-69
2021/09/18 12:27:32;;;;;;;2.87;2.67;;;22.50;85.50;;;;;;4957405;28;20402;-69
2021/09/18 12:30:08;;;;;;;2.57;2.40;;;22.40;86.20;;;;;;4957162;28;20515;-69
2021/09/18 12:32:34;;;;;;;3.20;2.63;;;22.40;86.30;;;;;;4976027;28;20404;-68
2021/09/18 12:35:10;;;;;;;3.60;2.70;;;22.40;86.70;;;;;;4996223;28;20889;-69
2021/09/18 12:37:41;;;;;;;2.60;2.40;;;22.40;85.90;;;;;;4948543;28;20436;-68
2021/09/18 12:40:19;;;;;;;2.60;2.17;;;22.40;85.80;;;;;;4975803;28;20842;-68
2021/09/18 12:43:04;;;;;;;3.13;2.80;;;22.40;86.70;;;;;;4956831;29;20531;-68
2021/09/18 12:45:34;;;;;;;4.63;2.50;;;22.40;86.60;;;;;;4956790;28;20823;-66
2021/09/18 12:48:11;;;;;;;2.20;2.07;;;22.30;86.10;;;;;;4979515;28;20552;-68
2021/09/18 12:51:10;;;;;;;2.40;2.20;;;22.30;86.90;;;;;;4983636;28;20766;-68
2021/09/18 12:53:41;;;;;;;2.17;1.97;;;22.30;86.90;;;;;;4953775;28;20439;-66
2021/09/18 12:56:12;;;;;;;2.80;2.47;;;22.40;86.50;;;;;;4968125;28;20586;-68